Time;durP1;ratioP1;P1;durP2;ratioP2;P2;SDS_P1;SDS_P2;PMS_P1;PMS_P2;Temp;Humidity;BMP_temperature;BMP_pressure;BME280_temperature;BME280_humidity;BME280_pressure;Samples;Min_cycle;Max_cycle;Signal;HPM_P1;HPM_P2
2022/06/26 00:01:52;;;;;;;9.77;5.57;;;17.10;99.90;;;;;;5069933;28;20017;-76
2022/06/26 00:04:18;;;;;;;16.88;6.22;;;17.10;99.90;;;;;;5056514;28;20087;-76
2022/06/26 00:06:43;;;;;;;11.98;6.95;;;17.10;99.90;;;;;;5056154;28;20023;-76
2022/06/26 00:09:09;;;;;;;8.43;5.80;;;17.00;99.90;;;;;;5066679;28;20028;-76
2022/06/26 00:11:34;;;;;;;8.40;5.32;;;17.10;99.90;;;;;;5076015;28;20120;-76
2022/06/26 00:14:00;;;;;;;7.80;5.50;;;17.00;99.90;;;;;;5067718;28;20036;-76
2022/06/26 00:16:25;;;;;;;6.78;5.05;;;17.00;99.90;;;;;;5063667;28;20028;-76
2022/06/26 00:18:51;;;;;;;8.60;5.82;;;16.90;99.90;;;;;;5048118;28;20066;-76
2022/06/26 00:21:17;;;;;;;9.20;5.40;;;16.90;99.90;;;;;;5075543;28;20031;-76
2022/06/26 00:23:42;;;;;;;8.55;5.40;;;16.90;99.90;;;;;;5058294;28;20040;-76
2022/06/26 00:26:08;;;;;;;7.00;4.80;;;16.90;99.90;;;;;;5060804;28;20029;-76
2022/06/26 00:28:34;;;;;;;18.10;12.45;;;16.90;99.90;;;;;;5054589;28;20108;-76
2022/06/26 00:31:01;;;;;;;24.15;16.17;;;16.80;99.90;;;;;;5027122;28;20056;-76
2022/06/26 00:33:27;;;;;;;22.20;14.02;;;16.80;99.90;;;;;;5056623;28;20017;-76
2022/06/26 00:35:52;;;;;;;19.92;14.05;;;16.70;99.90;;;;;;5052730;28;20056;-76
2022/06/26 00:38:18;;;;;;;18.52;13.38;;;16.60;99.90;;;;;;5043881;28;20065;-77
2022/06/26 00:40:44;;;;;;;15.40;11.93;;;16.60;99.90;;;;;;5058401;28;20070;-77
2022/06/26 00:43:14;;;;;;;13.10;9.68;;;16.60;99.90;;;;;;5065170;28;20055;-77
2022/06/26 00:45:41;;;;;;;11.85;7.75;;;16.60;99.90;;;;;;5055074;28;20056;-76
2022/06/26 00:48:06;;;;;;;11.20;7.05;;;16.50;99.90;;;;;;5064252;28;20052;-76
2022/06/26 00:50:32;;;;;;;13.40;7.85;;;16.50;99.90;;;;;;5061273;28;20087;-76
2022/06/26 00:52:58;;;;;;;9.43;7.22;;;16.50;99.90;;;;;;5058139;28;20039;-76
2022/06/26 00:55:24;;;;;;;10.65;7.32;;;16.50;99.90;;;;;;5066202;28;20462;-76
2022/06/26 00:57:50;;;;;;;12.50;7.28;;;16.50;99.90;;;;;;5055579;28;20100;-76
2022/06/26 01:00:20;;;;;;;8.07;6.63;;;16.40;99.90;;;;;;5055790;28;20438;-76
2022/06/26 01:02:45;;;;;;;9.23;6.60;;;16.40;99.90;;;;;;5055511;28;20104;-76
2022/06/26 01:05:12;;;;;;;7.20;5.38;;;16.40;99.90;;;;;;5050690;28;20048;-76
2022/06/26 01:07:39;;;;;;;7.53;5.20;;;16.40;99.90;;;;;;5037024;28;20025;-76
2022/06/26 01:10:05;;;;;;;7.50;4.80;;;16.40;99.90;;;;;;5051416;28;20113;-76
2022/06/26 01:12:31;;;;;;;9.45;4.20;;;16.40;99.90;;;;;;5034954;28;20344;-76
2022/06/26 01:14:58;;;;;;;7.60;4.60;;;16.40;99.90;;;;;;5019305;28;20056;-77
2022/06/26 01:17:24;;;;;;;7.32;5.07;;;16.50;99.90;;;;;;5050308;28;20056;-76
2022/06/26 01:19:50;;;;;;;7.68;5.78;;;16.50;99.90;;;;;;5070197;28;20025;-76
2022/06/26 01:22:16;;;;;;;8.82;6.20;;;16.50;99.90;;;;;;5064932;28;20021;-77
2022/06/26 01:24:41;;;;;;;12.57;8.70;;;16.50;99.90;;;;;;5036201;28;20021;-76
2022/06/26 01:27:07;;;;;;;15.27;9.40;;;16.50;99.90;;;;;;5054998;28;20048;-76
2022/06/26 01:29:32;;;;;;;18.42;9.38;;;16.50;99.90;;;;;;5054822;28;20079;-76
2022/06/26 01:31:59;;;;;;;11.38;8.82;;;16.50;99.90;;;;;;5046415;28;20070;-76
2022/06/26 01:34:25;;;;;;;12.63;7.15;;;16.50;99.90;;;;;;5071027;28;20039;-76
2022/06/26 01:36:51;;;;;;;9.77;6.95;;;16.60;99.90;;;;;;5074189;28;20457;-76
2022/06/26 01:39:20;;;;;;;9.32;5.93;;;16.60;99.90;;;;;;5074544;28;20533;-76
2022/06/26 01:41:47;;;;;;;9.50;5.90;;;16.60;99.90;;;;;;5060306;28;20029;-76
2022/06/26 01:44:13;;;;;;;11.98;6.22;;;16.60;99.90;;;;;;5074398;28;20020;-76
2022/06/26 01:46:38;;;;;;;12.27;6.82;;;16.70;99.90;;;;;;5073992;28;20031;-76
2022/06/26 01:49:05;;;;;;;10.60;6.47;;;16.70;99.90;;;;;;5061670;28;20025;-76
2022/06/26 01:51:31;;;;;;;8.43;5.30;;;16.70;99.90;;;;;;5061719;28;20029;-76
2022/06/26 01:53:57;;;;;;;8.60;5.40;;;16.70;99.90;;;;;;5054608;28;20027;-76
2022/06/26 01:56:22;;;;;;;7.72;5.22;;;16.80;99.90;;;;;;5064092;28;20484;-76
2022/06/26 01:58:48;;;;;;;6.70;5.10;;;16.80;99.90;;;;;;5055814;28;20013;-76
2022/06/26 02:01:14;;;;;;;8.32;4.38;;;16.80;99.90;;;;;;5029338;28;20338;-76
2022/06/26 02:03:39;;;;;;;8.20;4.65;;;16.80;99.90;;;;;;5068225;28;20082;-76
2022/06/26 02:06:06;;;;;;;8.23;4.53;;;16.80;99.90;;;;;;5054039;28;20420;-76
2022/06/26 02:08:32;;;;;;;9.05;4.70;;;16.80;99.90;;;;;;5053858;28;20078;-76
2022/06/26 02:13:43;;;;;;;;;;;16.70;99.90;;;;;;5054355;28;20035;-76
2022/06/26 02:16:21;;;;;;;7.88;5.22;;;16.70;99.90;;;;;;5072676;28;19904;-76
2022/06/26 02:18:52;;;;;;;7.82;4.85;;;16.60;99.90;;;;;;5064733;28;20029;-76
2022/06/26 02:21:20;;;;;;;8.73;5.30;;;16.60;99.90;;;;;;5053746;28;20101;-76
2022/06/26 02:23:48;;;;;;;8.07;5.25;;;16.50;99.90;;;;;;5053937;28;20032;-76
2022/06/26 02:26:14;;;;;;;7.80;5.68;;;16.50;99.90;;;;;;5022825;28;20469;-76
2022/06/26 02:28:41;;;;;;;8.15;5.18;;;16.50;99.90;;;;;;5053899;28;20100;-76
2022/06/26 02:31:07;;;;;;;8.13;5.72;;;16.50;99.90;;;;;;5041079;28;20026;-76
2022/06/26 02:33:34;;;;;;;8.00;5.53;;;16.50;99.90;;;;;;5073586;28;20021;-76
2022/06/26 02:35:59;;;;;;;6.50;5.32;;;16.50;99.90;;;;;;5060403;28;20013;-76
2022/06/26 02:38:26;;;;;;;5.95;5.13;;;16.50;99.90;;;;;;5045855;28;20071;-76
2022/06/26 02:40:52;;;;;;;7.43;5.32;;;16.50;99.90;;;;;;5056459;28;20070;-76
2022/06/26 02:43:19;;;;;;;9.85;5.30;;;16.50;99.90;;;;;;5056453;28;20021;-76
2022/06/26 02:45:45;;;;;;;6.55;5.10;;;16.50;99.90;;;;;;5053485;28;20159;-76
2022/06/26 02:48:15;;;;;;;7.75;5.20;;;16.50;99.90;;;;;;5053723;28;20028;-76
2022/06/26 02:50:42;;;;;;;7.93;4.90;;;16.50;99.90;;;;;;5035559;28;20118;-76
2022/06/26 02:53:09;;;;;;;14.07;5.40;;;16.50;99.90;;;;;;5067577;28;20055;-76
2022/06/26 02:55:35;;;;;;;6.35;4.90;;;16.60;99.90;;;;;;5054364;28;20074;-76
2022/06/26 02:58:01;;;;;;;6.40;4.90;;;16.60;99.90;;;;;;5043421;28;20030;-76
2022/06/26 03:00:26;;;;;;;8.20;5.38;;;16.60;99.90;;;;;;5058135;28;20051;-76
2022/06/26 03:02:52;;;;;;;6.90;4.80;;;16.60;99.90;;;;;;5062953;28;20028;-76
2022/06/26 03:05:18;;;;;;;6.13;4.63;;;16.60;99.90;;;;;;5053328;28;20117;-76
2022/06/26 03:07:43;;;;;;;9.23;5.07;;;16.60;99.90;;;;;;5051995;28;20033;-76
2022/06/26 03:10:09;;;;;;;5.70;4.65;;;16.60;99.90;;;;;;5035300;28;20445;-76
2022/06/26 03:12:45;;;;;;;6.45;4.60;;;16.70;99.90;;;;;;5053553;28;20029;-76
2022/06/26 03:15:12;;;;;;;8.60;4.80;;;16.70;99.90;;;;;;5035790;28;20480;-76
2022/06/26 03:17:38;;;;;;;10.27;4.80;;;16.70;99.90;;;;;;5058084;28;20013;-76
2022/06/26 03:20:09;;;;;;;9.27;5.05;;;16.70;99.90;;;;;;5073224;28;20470;-76
2022/06/26 03:22:35;;;;;;;7.05;4.53;;;16.70;99.90;;;;;;5051537;28;20025;-77
2022/06/26 03:25:00;;;;;;;6.60;4.22;;;16.70;99.90;;;;;;5053164;28;20036;-76
2022/06/26 03:27:26;;;;;;;8.23;4.55;;;16.70;99.90;;;;;;5053530;28;20033;-76
2022/06/26 03:29:51;;;;;;;5.38;4.20;;;16.70;99.90;;;;;;5056144;28;20111;-76
2022/06/26 03:32:17;;;;;;;6.22;4.03;;;16.70;99.90;;;;;;5067648;28;20068;-76
2022/06/26 03:34:42;;;;;;;8.20;4.63;;;16.70;99.90;;;;;;5062960;28;20931;-76
2022/06/26 03:37:08;;;;;;;5.43;4.22;;;16.60;99.90;;;;;;5076774;28;20472;-76
2022/06/26 03:39:33;;;;;;;6.00;4.47;;;16.70;99.90;;;;;;5077251;28;20032;-76
2022/06/26 03:42:02;;;;;;;7.85;4.22;;;16.70;99.90;;;;;;5075307;28;20024;-76
2022/06/26 03:44:29;;;;;;;8.00;4.20;;;16.60;99.90;;;;;;5076933;28;20466;-76
2022/06/26 03:46:55;;;;;;;6.07;4.53;;;16.60;99.90;;;;;;5059011;28;20043;-76
2022/06/26 03:49:22;;;;;;;6.97;4.10;;;16.70;99.90;;;;;;5076976;28;20036;-76
2022/06/26 03:51:48;;;;;;;8.27;4.53;;;16.70;99.90;;;;;;5076762;28;20032;-76
2022/06/26 03:54:14;;;;;;;5.28;4.10;;;16.70;99.90;;;;;;5077222;28;20450;-76
2022/06/26 03:56:40;;;;;;;6.05;4.40;;;16.70;99.90;;;;;;5062354;28;20459;-76
2022/06/26 03:59:05;;;;;;;7.57;4.25;;;16.70;99.90;;;;;;5076651;28;20139;-76
2022/06/26 04:01:31;;;;;;;6.07;4.30;;;16.80;99.90;;;;;;5076128;28;20031;-76
2022/06/26 04:03:57;;;;;;;6.10;3.80;;;16.80;99.90;;;;;;5056851;28;20543;-76
2022/06/26 04:06:22;;;;;;;4.97;3.45;;;16.80;99.90;;;;;;5068054;28;20032;-76
2022/06/26 04:08:48;;;;;;;6.47;3.67;;;16.80;99.90;;;;;;5055548;28;20041;-76
2022/06/26 04:11:14;;;;;;;8.40;3.70;;;17.00;99.90;;;;;;5036453;28;20144;-76
2022/06/26 04:13:41;;;;;;;4.80;3.65;;;17.00;99.90;;;;;;5066982;28;20029;-76
2022/06/26 04:16:06;;;;;;;5.53;3.30;;;17.00;99.90;;;;;;5076109;28;20021;-76
2022/06/26 04:18:32;;;;;;;6.82;2.95;;;17.00;99.90;;;;;;5063188;28;20151;-76
2022/06/26 04:20:58;;;;;;;4.95;2.85;;;17.10;99.90;;;;;;5061085;28;20028;-76
2022/06/26 04:23:23;;;;;;;8.27;3.28;;;17.10;99.90;;;;;;5064704;28;20371;-76
2022/06/26 04:25:49;;;;;;;8.32;3.13;;;17.10;99.90;;;;;;5055968;28;20025;-76
2022/06/26 04:28:14;;;;;;;8.10;3.25;;;17.20;99.90;;;;;;5061306;28;20024;-76
2022/06/26 04:30:40;;;;;;;6.32;2.90;;;17.20;99.90;;;;;;5064663;28;20035;-76
2022/06/26 04:33:06;;;;;;;6.47;2.55;;;17.20;99.90;;;;;;5073294;28;20499;-76
2022/06/26 04:35:32;;;;;;;3.95;2.60;;;17.20;99.90;;;;;;5075780;28;20021;-76
2022/06/26 04:37:58;;;;;;;4.60;2.45;;;17.30;99.90;;;;;;5044648;28;20112;-76
2022/06/26 04:40:23;;;;;;;7.53;3.30;;;17.30;99.90;;;;;;5076284;28;20065;-76
2022/06/26 04:42:49;;;;;;;4.57;2.50;;;17.40;99.90;;;;;;5057944;28;20380;-76
2022/06/26 04:45:15;;;;;;;6.07;2.80;;;17.40;99.90;;;;;;5052636;28;20029;-76
2022/06/26 04:47:40;;;;;;;7.28;2.40;;;17.40;99.90;;;;;;5056116;28;20100;-76
2022/06/26 04:50:07;;;;;;;4.72;2.25;;;17.50;99.90;;;;;;5038171;28;20027;-76
2022/06/26 04:52:32;;;;;;;3.67;2.53;;;17.50;99.90;;;;;;5064781;28;20021;-76
2022/06/26 04:54:58;;;;;;;5.22;2.40;;;17.50;99.90;;;;;;5042326;28;20028;-76
2022/06/26 04:57:25;;;;;;;4.32;2.15;;;17.60;99.90;;;;;;5063091;28;20373;-77
2022/06/26 04:59:51;;;;;;;3.63;2.17;;;17.60;99.90;;;;;;5075411;28;20048;-76
2022/06/26 05:02:17;;;;;;;3.78;2.40;;;17.70;99.90;;;;;;5069403;28;20021;-76
2022/06/26 05:04:42;;;;;;;4.05;1.80;;;17.80;99.90;;;;;;5055634;28;20032;-76
2022/06/26 05:07:08;;;;;;;4.70;2.28;;;17.80;99.90;;;;;;5037144;28;20385;-76
2022/06/26 05:09:34;;;;;;;5.15;1.90;;;17.90;99.90;;;;;;5055486;28;20029;-76
2022/06/26 05:11:59;;;;;;;6.38;1.90;;;18.00;99.90;;;;;;5052652;28;20036;-76
2022/06/26 05:14:27;;;;;;;2.22;1.67;;;18.10;99.90;;;;;;5067613;28;20940;-76
2022/06/26 05:16:53;;;;;;;3.28;1.80;;;18.20;99.90;;;;;;5055484;28;20028;-76
2022/06/26 05:19:19;;;;;;;2.75;1.75;;;18.30;99.90;;;;;;5074964;28;20020;-76
2022/06/26 05:21:44;;;;;;;5.78;1.70;;;18.40;99.90;;;;;;5045211;28;20029;-76
2022/06/26 05:24:10;;;;;;;2.45;1.70;;;18.50;99.90;;;;;;5037596;28;20393;-77
2022/06/26 05:26:36;;;;;;;2.35;1.77;;;18.50;99.90;;;;;;5064477;28;20509;-76
2022/06/26 05:29:02;;;;;;;5.05;1.60;;;18.60;99.90;;;;;;5074952;28;20032;-76
2022/06/26 05:31:27;;;;;;;4.68;1.85;;;18.70;99.90;;;;;;5056858;28;20032;-76
2022/06/26 05:33:53;;;;;;;3.00;1.70;;;18.80;99.90;;;;;;5054408;28;20051;-76
2022/06/26 05:36:19;;;;;;;4.90;1.73;;;18.90;99.90;;;;;;5022618;28;20026;-76
2022/06/26 05:38:45;;;;;;;2.38;1.30;;;19.00;99.90;;;;;;5054581;28;20021;-74
2022/06/26 05:41:10;;;;;;;2.20;1.45;;;19.20;99.90;;;;;;5036184;28;20569;-72
2022/06/26 05:43:36;;;;;;;2.72;1.70;;;19.40;99.90;;;;;;5044253;28;20456;-73
2022/06/26 05:46:02;;;;;;;3.05;1.50;;;19.60;99.90;;;;;;5054261;28;20033;-72
2022/06/26 05:48:28;;;;;;;1.52;1.40;;;19.70;99.90;;;;;;5072040;28;20024;-72
2022/06/26 05:50:54;;;;;;;2.17;1.40;;;19.90;99.90;;;;;;5073877;28;20020;-72
2022/06/26 05:53:21;;;;;;;2.05;1.40;;;19.90;99.90;;;;;;5071521;28;20035;-77
2022/06/26 05:55:47;;;;;;;3.50;1.50;;;19.90;99.90;;;;;;5054153;28;20017;-73
2022/06/26 05:58:12;;;;;;;2.83;1.23;;;19.90;99.90;;;;;;5036154;28;20385;-72
2022/06/26 06:00:39;;;;;;;2.10;1.30;;;19.80;99.90;;;;;;5070083;28;20020;-72
2022/06/26 06:03:05;;;;;;;1.63;1.30;;;19.80;99.90;;;;;;5074184;28;20016;-72
2022/06/26 06:05:31;;;;;;;2.60;1.83;;;19.80;99.90;;;;;;5074030;28;20028;-72
2022/06/26 06:07:57;;;;;;;4.55;1.48;;;19.70;99.90;;;;;;5073808;28;20024;-72
2022/06/26 06:10:25;;;;;;;2.03;1.42;;;19.70;99.90;;;;;;5057085;28;20504;-73
2022/06/26 06:12:52;;;;;;;2.60;1.52;;;19.70;99.90;;;;;;5054422;28;20021;-72
2022/06/26 06:15:19;;;;;;;2.30;1.38;;;19.60;99.90;;;;;;5046577;28;20422;-72
2022/06/26 06:17:47;;;;;;;3.05;1.77;;;19.60;99.90;;;;;;5019166;28;20028;-73
2022/06/26 06:20:17;;;;;;;2.70;1.55;;;19.60;99.90;;;;;;5053596;28;20024;-73
2022/06/26 06:22:46;;;;;;;3.03;1.40;;;19.50;99.90;;;;;;5053997;28;20017;-73
2022/06/26 06:25:12;;;;;;;2.78;1.38;;;19.60;99.90;;;;;;5053966;28;20027;-72
2022/06/26 06:27:38;;;;;;;2.60;1.40;;;19.80;99.90;;;;;;5035618;28;20025;-73
2022/06/26 06:30:06;;;;;;;2.63;1.33;;;20.00;99.90;;;;;;5053483;28;20031;-72
2022/06/26 06:32:31;;;;;;;2.97;1.60;;;20.20;99.90;;;;;;5035561;28;20032;-72
2022/06/26 06:34:57;;;;;;;2.70;1.52;;;20.50;99.90;;;;;;5053283;28;20028;-72
2022/06/26 06:37:23;;;;;;;1.92;1.38;;;20.70;99.90;;;;;;5042537;28;20796;-73
2022/06/26 06:39:49;;;;;;;2.90;1.38;;;20.90;99.90;;;;;;5034613;28;20360;-73
2022/06/26 06:42:14;;;;;;;3.08;1.50;;;21.20;99.90;;;;;;5033830;28;20356;-72
2022/06/26 06:44:40;;;;;;;2.33;1.52;;;21.20;99.90;;;;;;5034437;28;20029;-72
2022/06/26 06:47:06;;;;;;;2.60;1.33;;;21.50;99.90;;;;;;5043535;28;20033;-72
2022/06/26 06:49:32;;;;;;;3.20;1.52;;;21.60;99.90;;;;;;5059548;28;20028;-72
2022/06/26 06:51:58;;;;;;;2.03;1.13;;;21.70;99.90;;;;;;5055658;28;20037;-72
2022/06/26 06:54:25;;;;;;;3.08;1.20;;;21.90;99.90;;;;;;5057540;28;20393;-72
2022/06/26 06:56:50;;;;;;;1.63;1.30;;;22.00;99.90;;;;;;5063991;28;20016;-80
2022/06/26 06:59:17;;;;;;;2.20;1.35;;;22.10;99.90;;;;;;5060331;28;20568;-73
2022/06/26 07:01:42;;;;;;;2.83;1.50;;;22.30;99.90;;;;;;5053184;28;20025;-72
2022/06/26 07:04:08;;;;;;;1.83;1.27;;;22.30;99.90;;;;;;5055707;28;20032;-73
2022/06/26 07:06:34;;;;;;;1.67;1.20;;;22.40;99.90;;;;;;5057439;28;20031;-79
2022/06/26 07:08:59;;;;;;;3.30;1.20;;;22.40;99.90;;;;;;5039544;28;20477;-73
2022/06/26 07:11:28;;;;;;;3.50;1.73;;;22.40;99.90;;;;;;5056926;28;20052;-77
2022/06/26 07:13:53;;;;;;;1.63;1.27;;;22.50;99.90;;;;;;5051333;28;20048;-76
2022/06/26 07:16:20;;;;;;;2.78;1.15;;;22.50;99.90;;;;;;5064454;28;20080;-75
2022/06/26 07:18:46;;;;;;;3.05;1.20;;;22.60;99.90;;;;;;5049104;28;20032;-75
2022/06/26 07:21:12;;;;;;;2.63;1.20;;;22.60;99.90;;;;;;5067165;28;20073;-74
2022/06/26 07:23:37;;;;;;;1.48;1.17;;;22.60;99.90;;;;;;5061236;28;20027;-73
2022/06/26 07:26:03;;;;;;;2.22;1.10;;;22.70;99.90;;;;;;5064656;28;20063;-73
2022/06/26 07:28:29;;;;;;;2.08;1.40;;;22.70;99.90;;;;;;5057130;28;20021;-73
2022/06/26 07:30:54;;;;;;;2.00;1.20;;;22.80;99.90;;;;;;5056466;28;20484;-73
2022/06/26 07:36:09;;;;;;;2.63;1.20;;;22.90;99.90;;;;;;5018931;28;20082;-73
2022/06/26 07:38:34;;;;;;;1.90;1.13;;;22.90;99.90;;;;;;5056184;28;20022;-71
2022/06/26 07:41:00;;;;;;;3.03;1.20;;;22.90;99.90;;;;;;5053073;28;20029;-71
2022/06/26 07:43:26;;;;;;;2.05;1.10;;;22.90;99.90;;;;;;5055329;28;20025;-71
2022/06/26 07:45:52;;;;;;;1.85;1.30;;;23.00;99.90;;;;;;5055013;28;20033;-70
2022/06/26 07:48:17;;;;;;;5.13;1.20;;;23.00;99.90;;;;;;5054167;28;20120;-70
2022/06/26 07:50:48;;;;;;;1.55;1.27;;;23.00;99.90;;;;;;5045406;28;20040;-77
2022/06/26 07:53:14;;;;;;;2.90;1.25;;;23.10;99.90;;;;;;5040765;28;20029;-77
2022/06/26 07:55:39;;;;;;;1.70;1.20;;;23.10;99.90;;;;;;5056746;28;20082;-76
2022/06/26 07:58:05;;;;;;;1.88;1.20;;;23.10;99.90;;;;;;5026188;28;20025;-77
2022/06/26 08:00:31;;;;;;;2.15;1.25;;;23.10;99.90;;;;;;5044262;28;20361;-77
2022/06/26 08:03:04;;;;;;;3.47;1.60;;;23.20;99.90;;;;;;5068555;28;20102;-77
2022/06/26 08:05:30;;;;;;;1.88;1.50;;;23.30;99.90;;;;;;5056717;28;20021;-77
2022/06/26 08:07:55;;;;;;;1.92;1.40;;;23.30;99.90;;;;;;5066848;28;20039;-77
2022/06/26 08:10:21;;;;;;;2.53;1.50;;;23.30;99.90;;;;;;5048487;28;20041;-77
2022/06/26 08:12:47;;;;;;;2.20;1.20;;;23.40;99.90;;;;;;5032950;28;20025;-77
2022/06/26 08:15:12;;;;;;;2.22;1.20;;;23.40;99.90;;;;;;5037630;28;20021;-77
2022/06/26 08:17:40;;;;;;;1.95;1.27;;;23.50;99.90;;;;;;5062188;28;20026;-77
2022/06/26 08:20:11;;;;;;;1.45;1.25;;;23.60;99.90;;;;;;5054778;28;20029;-77
2022/06/26 08:22:37;;;;;;;2.38;1.20;;;23.60;99.90;;;;;;5038587;28;20342;-77
2022/06/26 08:25:03;;;;;;;2.42;1.20;;;23.70;99.90;;;;;;5065451;28;20028;-77
2022/06/26 08:27:29;;;;;;;3.25;1.40;;;23.90;99.90;;;;;;5038022;28;20487;-77
2022/06/26 08:29:54;;;;;;;1.30;1.00;;;23.90;99.90;;;;;;5069932;28;20029;-77
2022/06/26 08:32:20;;;;;;;1.17;1.08;;;24.00;99.90;;;;;;5037736;28;20152;-77
2022/06/26 08:34:45;;;;;;;2.05;1.17;;;24.10;99.90;;;;;;5058584;28;20040;-77
2022/06/26 08:37:11;;;;;;;2.20;1.20;;;24.10;99.90;;;;;;5039827;28;20017;-77
2022/06/26 08:39:39;;;;;;;2.25;1.33;;;24.10;99.90;;;;;;5055855;28;20033;-77
2022/06/26 08:42:12;;;;;;;3.10;1.13;;;24.10;99.90;;;;;;5055906;28;20380;-77
2022/06/26 08:44:43;;;;;;;2.70;1.17;;;24.20;99.90;;;;;;5070025;28;20031;-77
2022/06/26 08:47:13;;;;;;;2.53;1.35;;;24.30;99.90;;;;;;5068415;28;20099;-77
2022/06/26 08:49:42;;;;;;;3.47;1.10;;;24.40;99.90;;;;;;5069416;28;20354;-76
2022/06/26 08:52:13;;;;;;;1.67;1.17;;;24.40;99.90;;;;;;5075480;28;20019;-77
2022/06/26 08:54:39;;;;;;;1.52;1.05;;;24.40;99.90;;;;;;5062562;28;20381;-76
2022/06/26 08:57:05;;;;;;;3.20;1.20;;;24.40;99.90;;;;;;5055090;28;20021;-77
2022/06/26 08:59:34;;;;;;;2.10;1.33;;;24.50;99.90;;;;;;5055263;28;20023;-77
2022/06/26 09:02:01;;;;;;;2.10;1.40;;;24.60;99.90;;;;;;5058516;28;20103;-76
2022/06/26 09:04:27;;;;;;;1.65;1.30;;;24.70;99.90;;;;;;5047767;28;20114;-77
2022/06/26 09:06:53;;;;;;;1.30;1.02;;;24.80;99.90;;;;;;5042681;28;20029;-77
2022/06/26 09:09:27;;;;;;;3.47;1.20;;;24.90;99.90;;;;;;5050383;28;20036;-77
2022/06/26 09:11:56;;;;;;;2.20;1.23;;;25.10;99.90;;;;;;5074770;28;20049;-77
2022/06/26 09:14:23;;;;;;;1.95;1.30;;;25.10;99.90;;;;;;5055296;28;20032;-77
2022/06/26 09:16:52;;;;;;;1.75;1.15;;;25.10;99.90;;;;;;5055080;28;20017;-77
2022/06/26 09:19:38;;;;;;;2.53;1.45;;;25.10;99.90;;;;;;5069261;28;20022;-77
2022/06/26 09:22:08;;;;;;;5.18;1.40;;;25.20;99.90;;;;;;5055321;28;20024;-77
2022/06/26 09:24:36;;;;;;;2.17;1.30;;;25.40;99.90;;;;;;5044150;28;20033;-77
2022/06/26 09:27:16;;;;;;;2.80;1.05;;;25.50;99.90;;;;;;5055869;28;20107;-77
2022/06/26 09:29:50;;;;;;;2.10;1.50;;;25.60;99.90;;;;;;5057276;28;20025;-77
2022/06/26 09:32:23;;;;;;;2.90;1.10;;;25.70;99.90;;;;;;5051893;28;20025;-77
2022/06/26 09:34:52;;;;;;;1.65;1.10;;;25.90;99.90;;;;;;5056374;28;20031;-77
2022/06/26 09:37:20;;;;;;;2.17;1.20;;;26.10;99.90;;;;;;5064719;28;20028;-77
2022/06/26 09:39:48;;;;;;;1.77;1.20;;;26.20;99.90;;;;;;5052833;28;20024;-77
2022/06/26 09:42:18;;;;;;;1.15;1.00;;;26.50;99.90;;;;;;5074918;28;20092;-77
2022/06/26 09:44:52;;;;;;;4.13;1.10;;;26.80;99.90;;;;;;5054777;28;20071;-77
2022/06/26 09:47:23;;;;;;;1.40;1.00;;;27.10;99.90;;;;;;5046670;28;20029;-77
2022/06/26 09:49:51;;;;;;;3.67;1.10;;;27.30;99.90;;;;;;5053765;28;20031;-78
2022/06/26 09:52:17;;;;;;;2.00;1.20;;;27.60;99.90;;;;;;5053063;28;20195;-76
2022/06/26 09:54:44;;;;;;;2.55;1.20;;;27.70;99.90;;;;;;5053931;28;20116;-76
2022/06/26 09:57:10;;;;;;;1.73;1.20;;;27.90;99.90;;;;;;5054210;28;20021;-76
2022/06/26 09:59:36;;;;;;;1.33;1.00;;;28.00;99.90;;;;;;5054291;28;20094;-76
2022/06/26 10:07:32;;;;;;;1.25;1.10;;;28.40;99.90;;;;;;5052077;28;20083;-75
2022/06/26 10:09:58;;;;;;;4.10;2.00;;;28.70;99.90;;;;;;5047418;28;20794;-76
2022/06/26 10:12:24;;;;;;;2.17;1.27;;;28.90;99.90;;;;;;5046565;28;20104;-76
2022/06/26 10:14:53;;;;;;;1.05;0.90;;;28.90;99.90;;;;;;5040040;28;20035;-76
2022/06/26 10:17:21;;;;;;;1.27;1.00;;;29.10;99.90;;;;;;5073437;28;20465;-76
2022/06/26 10:19:56;;;;;;;1.10;0.80;;;29.20;99.90;;;;;;5073713;28;20048;-76
2022/06/26 10:22:21;;;;;;;1.70;1.08;;;29.40;99.90;;;;;;5069792;28;20641;-76
2022/06/26 10:25:03;;;;;;;2.20;1.00;;;29.60;99.90;;;;;;5039388;28;20117;-76
2022/06/26 10:27:33;;;;;;;2.10;1.00;;;29.50;99.90;;;;;;5035964;28;20086;-75
2022/06/26 10:30:13;;;;;;;1.63;1.05;;;29.70;99.90;;;;;;5049750;28;20385;-75
2022/06/26 10:32:39;;;;;;;3.13;1.30;;;29.80;99.90;;;;;;5051723;28;20024;-75
2022/06/26 10:35:08;;;;;;;2.97;1.25;;;29.90;99.90;;;;;;5053018;28;20075;-76
2022/06/26 10:37:43;;;;;;;2.75;0.90;;;30.00;99.90;;;;;;5039131;28;20151;-76
2022/06/26 10:42:52;;;;;;;1.67;1.10;;;29.80;99.90;;;;;;5053333;28;20033;-76
2022/06/26 10:43:00;;;;;;;5.50;1.27;;;29.80;99.90;;;;;;5044037;28;20048;-76
2022/06/26 10:45:30;;;;;;;1.67;0.82;;;29.80;99.90;;;;;;5074006;28;20048;-76
2022/06/26 10:48:16;;;;;;;1.15;0.80;;;30.00;99.90;;;;;;5050916;28;20033;-76
2022/06/26 10:50:42;;;;;;;1.20;0.80;;;29.80;99.90;;;;;;5064956;28;20493;-76
2022/06/26 10:53:14;;;;;;;1.60;0.80;;;29.80;99.90;;;;;;5064940;28;20078;-76
2022/06/26 10:55:42;;;;;;;1.67;0.82;;;29.70;99.90;;;;;;5045040;28;20025;-77
2022/06/26 10:58:08;;;;;;;3.55;0.90;;;29.80;99.90;;;;;;5053012;28;20029;-76
2022/06/26 11:00:34;;;;;;;1.70;0.73;;;29.80;99.90;;;;;;5052589;28;20021;-77
2022/06/26 11:03:00;;;;;;;1.35;0.82;;;29.80;99.90;;;;;;5052649;28;20021;-76
2022/06/26 11:05:28;;;;;;;1.20;0.80;;;29.90;99.90;;;;;;5066814;28;20035;-76
2022/06/26 11:07:53;;;;;;;1.75;1.10;;;29.80;99.90;;;;;;5039481;28;20024;-76
2022/06/26 11:10:21;;;;;;;1.30;0.80;;;29.70;99.90;;;;;;5065856;28;20116;-76
2022/06/26 11:12:49;;;;;;;1.75;0.90;;;29.90;99.90;;;;;;5058834;28;20036;-76
2022/06/26 11:15:33;;;;;;;1.50;0.70;;;30.00;99.90;;;;;;5073288;28;20529;-76
2022/06/26 11:18:05;;;;;;;1.35;0.70;;;30.10;99.90;;;;;;5043863;28;20027;-76
2022/06/26 11:20:50;;;;;;;3.13;0.90;;;30.30;99.90;;;;;;5035825;28;20462;-76
2022/06/26 11:23:26;;;;;;;1.40;0.70;;;30.30;99.90;;;;;;5039542;28;20087;-76
2022/06/26 11:25:56;;;;;;;1.23;0.80;;;30.50;99.90;;;;;;5042908;28;20017;-76
2022/06/26 11:28:30;;;;;;;1.40;0.70;;;30.60;99.90;;;;;;5053191;28;20017;-76
2022/06/26 11:30:57;;;;;;;0.82;0.75;;;30.60;99.90;;;;;;5048056;28;20075;-76
2022/06/26 11:33:25;;;;;;;2.53;1.20;;;30.60;99.90;;;;;;5053080;28;20436;-76
2022/06/26 11:35:51;;;;;;;1.15;0.80;;;30.60;99.90;;;;;;5021223;28;20045;-77
2022/06/26 11:38:18;;;;;;;1.60;0.95;;;30.60;99.90;;;;;;5035138;28;20093;-76
2022/06/26 11:40:45;;;;;;;1.05;0.70;;;30.80;99.90;;;;;;5042982;28;20025;-78
2022/06/26 11:43:13;;;;;;;2.60;0.75;;;30.80;99.90;;;;;;5051265;28;20017;-78
2022/06/26 11:45:40;;;;;;;1.85;0.80;;;31.00;99.90;;;;;;5051570;28;20036;-78
2022/06/26 11:48:18;;;;;;;2.70;0.80;;;31.00;99.90;;;;;;5051006;28;20136;-78
2022/06/26 11:50:52;;;;;;;1.65;0.73;;;31.10;99.10;;;;;;5054266;28;20056;-78
2022/06/26 11:53:26;;;;;;;2.45;0.70;;;31.30;98.50;;;;;;5037225;28;20453;-78
2022/06/26 11:55:55;;;;;;;2.28;0.80;;;31.30;98.60;;;;;;5054988;28;20365;-77
2022/06/26 11:58:24;;;;;;;2.40;0.80;;;31.50;97.50;;;;;;5052124;28;20025;-78
2022/06/26 12:01:01;;;;;;;0.98;0.70;;;31.60;97.20;;;;;;5054484;28;20065;-71
2022/06/26 12:03:26;;;;;;;0.98;0.80;;;31.90;99.70;;;;;;5041631;28;20124;-78
2022/06/26 12:05:53;;;;;;;1.10;0.70;;;31.80;97.10;;;;;;5057270;28;20467;-78
2022/06/26 12:08:19;;;;;;;1.52;0.70;;;32.00;97.00;;;;;;5065413;28;20037;-78
2022/06/26 12:10:51;;;;;;;1.88;0.75;;;32.00;97.60;;;;;;5061339;28;20485;-78
2022/06/26 12:13:31;;;;;;;1.20;0.70;;;32.00;95.50;;;;;;5054317;28;20095;-78
2022/06/26 12:16:04;;;;;;;1.13;0.70;;;32.10;95.20;;;;;;5054695;28;20418;-78
2022/06/26 12:18:29;;;;;;;1.48;0.73;;;32.00;96.80;;;;;;5052867;28;20100;-78
2022/06/26 12:20:55;;;;;;;3.08;0.85;;;31.90;96.70;;;;;;5053615;28;20540;-78
2022/06/26 12:23:31;;;;;;;1.63;0.60;;;32.20;96.70;;;;;;5055879;28;20067;-78
2022/06/26 12:26:05;;;;;;;4.00;1.65;;;32.10;97.40;;;;;;5053424;28;20021;-77
2022/06/26 12:28:31;;;;;;;1.90;0.93;;;32.20;97.60;;;;;;5069813;28;20527;-77
2022/06/26 12:30:59;;;;;;;1.80;0.90;;;32.30;96.40;;;;;;5060344;28;20021;-77
2022/06/26 12:33:25;;;;;;;2.40;1.33;;;32.60;96.40;;;;;;5054114;28;20488;-77
2022/06/26 12:35:52;;;;;;;2.53;1.45;;;32.70;96.50;;;;;;5057055;28;20052;-78
2022/06/26 12:38:25;;;;;;;3.45;1.48;;;32.70;94.00;;;;;;5055587;28;20025;-77
2022/06/26 12:40:51;;;;;;;4.78;1.50;;;32.90;94.20;;;;;;5051600;28;20021;-78
2022/06/26 12:43:18;;;;;;;1.75;0.77;;;33.10;94.00;;;;;;5049298;28;20033;-77
2022/06/26 12:45:44;;;;;;;2.35;0.70;;;33.20;93.60;;;;;;5050146;28;20036;-77
2022/06/26 12:48:09;;;;;;;2.30;0.70;;;33.00;94.20;;;;;;5046794;28;20025;-75
2022/06/26 12:50:35;;;;;;;1.10;0.80;;;32.80;93.30;;;;;;5044715;28;20504;-76
2022/06/26 12:53:01;;;;;;;1.42;0.80;;;32.90;93.60;;;;;;5055378;28;20036;-76
2022/06/26 12:55:26;;;;;;;2.50;0.77;;;32.90;93.30;;;;;;5053502;28;20478;-77
2022/06/26 12:57:52;;;;;;;2.15;0.90;;;33.10;92.60;;;;;;5064381;28;20029;-77